Terminal Aerodrome Forecast
Issued by NWS

Home | Current Version | Previous Version | Text Only | Print | Product List | Glossary On
Versions: 1 2 3 4 5 6 7 8 9 10 11 12 13
000
FTUS44 KLZK 232333
TAFHOT
TAF
KHOT 232333Z 2400/2424 06007KT P6SM BKN050
     FM240200 06005KT P6SM FEW250
     FM241300 08008KT P6SM SCT250=

USA.gov is the U.S. government's official web portal to all federal, state and local government web resources and services.